Dendron Airport


Codes: FADO/
Name: Dendron Airport
City: Dendron
Country: South Africa
Elevation: 3399 ft.

Photos at Dendron Airport


   Photos courtesy of SpottingLog. You can add your own sightings and photos by signing up for a free trial today.



No photos found.

Weather at Dendron Airport


Time (UTC)DescriptionTempratureWindCloud coverageVisibilityPressureHumidity
15-Apr-2024 18:00Scattered Clouds20°C18 mph, E41%10000m1021hPa54%
15-Apr-2024 21:00Scattered Clouds19°C13 mph, E48%10000m1022hPa60%
16-Apr-2024 00:00Scattered Clouds17°C13 mph, E38%10000m1022hPa73%
16-Apr-2024 03:00Scattered Clouds15°C13 mph, E47%10000m1023hPa87%
16-Apr-2024 06:00Broken Clouds16°C18 mph, E61%10000m1024hPa79%
16-Apr-2024 09:00Overcast Clouds21°C16 mph, E89%10000m1023hPa54%
16-Apr-2024 12:00Scattered Clouds24°C16 mph, E48%10000m1019hPa39%
16-Apr-2024 15:00Broken Clouds22°C16 mph, E65%10000m1019hPa45%
16-Apr-2024 18:00Broken Clouds18°C13 mph, E76%10000m1021hPa59%
16-Apr-2024 21:00Overcast Clouds17°C16 mph, E92%10000m1023hPa59%
17-Apr-2024 00:00Broken Clouds14°C16 mph, E72%10000m1023hPa85%
17-Apr-2024 03:00Broken Clouds15°C16 mph, E67%10000m1022hPa82%
17-Apr-2024 06:00Broken Clouds16°C16 mph, E84%10000m1023hPa74%
17-Apr-2024 09:00Overcast Clouds20°C13 mph, NE98%10000m1022hPa56%
17-Apr-2024 12:00Broken Clouds24°C9 mph, NE75%10000m1019hPa38%
17-Apr-2024 15:00Few Clouds23°C9 mph, E14%10000m1019hPa40%
17-Apr-2024 18:00Clear Sky18°C9 mph, NE7%10000m1022hPa62%
17-Apr-2024 21:00Scattered Clouds16°C9 mph, E25%10000m1023hPa69%
18-Apr-2024 00:00Few Clouds15°C9 mph, E14%10000m1022hPa73%
18-Apr-2024 03:00Clear Sky14°C7 mph, E1%10000m1022hPa79%
18-Apr-2024 06:00Clear Sky17°C4 mph, E1%10000m1023hPa64%
18-Apr-2024 09:00Clear Sky25°C2 mph, E2%10000m1022hPa37%
18-Apr-2024 12:00Clear Sky28°C2 mph, SW1%10000m1018hPa28%
18-Apr-2024 15:00Clear Sky27°C4 mph, SW1%10000m1018hPa27%
18-Apr-2024 18:00Scattered Clouds24°C2 mph, E26%10000m1019hPa33%
18-Apr-2024 21:00Scattered Clouds20°C7 mph, E35%10000m1021hPa46%
19-Apr-2024 00:00Few Clouds18°C7 mph, E17%10000m1021hPa58%
19-Apr-2024 03:00Clear Sky17°C7 mph, SE0%10000m1020hPa65%
19-Apr-2024 06:00Clear Sky20°C4 mph, E0%10000m1021hPa53%
19-Apr-2024 09:00Clear Sky27°C2 mph, SE0%10000m1019hPa31%
19-Apr-2024 12:00Clear Sky30°C2 mph, NE0%10000m1015hPa22%
19-Apr-2024 15:00Clear Sky30°C7 mph, NE1%10000m1015hPa22%
19-Apr-2024 18:00Clear Sky23°C9 mph, E3%10000m1018hPa40%
19-Apr-2024 21:00Broken Clouds21°C7 mph, E62%10000m1019hPa50%
20-Apr-2024 00:00Scattered Clouds19°C7 mph, E31%10000m1018hPa62%
20-Apr-2024 03:00Clear Sky17°C4 mph, E0%10000m1018hPa74%
20-Apr-2024 06:00Clear Sky20°C2 mph, E0%10000m1018hPa63%
20-Apr-2024 09:00Clear Sky27°C4 mph, SW0%10000m1017hPa36%
20-Apr-2024 12:00Clear Sky31°C4 mph, W0%10000m1013hPa23%
20-Apr-2024 15:00Clear Sky31°C4 mph, W2%10000m1012hPa22%